createdAt,value
2022-11-20T00:01:38.320Z,9.80
2022-11-20T00:04:06.497Z,9.53
2022-11-20T00:06:34.482Z,9.90
2022-11-20T00:09:03.423Z,9.03
2022-11-20T00:11:33.916Z,9.37
2022-11-20T00:14:03.327Z,9.80
2022-11-20T00:16:34.576Z,8.87
2022-11-20T00:19:02.807Z,8.80
2022-11-20T00:21:32.129Z,9.33
2022-11-20T00:24:00.231Z,9.40
2022-11-20T00:26:29.587Z,9.63
2022-11-20T00:29:00.318Z,9.00
2022-11-20T00:31:29.191Z,9.60
2022-11-20T00:33:57.527Z,9.40
2022-11-20T00:36:27.520Z,9.50
2022-11-20T00:38:56.900Z,10.37
2022-11-20T00:41:26.152Z,9.97
2022-11-20T00:43:54.375Z,9.40
2022-11-20T00:46:25.639Z,9.73
2022-11-20T00:48:53.699Z,9.93
2022-11-20T00:51:23.205Z,8.97
2022-11-20T00:53:51.469Z,8.53
2022-11-20T00:56:21.070Z,9.50
2022-11-20T00:58:50.292Z,9.20
2022-11-20T01:01:20.672Z,8.70
2022-11-20T01:03:51.983Z,8.93
2022-11-20T01:06:21.610Z,8.90
2022-11-20T01:08:50.551Z,9.57
2022-11-20T01:11:21.714Z,9.40
2022-11-20T01:13:53.755Z,10.03
2022-11-20T01:16:23.944Z,9.57
2022-11-20T01:18:55.113Z,9.90
2022-11-20T01:21:25.043Z,9.90
2022-11-20T01:23:53.524Z,8.53
2022-11-20T01:26:23.339Z,9.80
2022-11-20T01:28:51.630Z,9.53
2022-11-20T01:31:22.180Z,10.07
2022-11-20T01:33:53.082Z,9.37
2022-11-20T01:36:24.535Z,9.50
2022-11-20T01:38:53.605Z,9.30
2022-11-20T01:41:35.765Z,9.10
2022-11-20T01:44:05.535Z,10.07
2022-11-20T01:46:34.260Z,9.63
2022-11-20T01:49:05.620Z,9.10
2022-11-20T01:51:41.149Z,9.47
2022-11-20T01:54:33.628Z,9.30
2022-11-20T01:57:03.036Z,8.80
2022-11-20T01:59:31.875Z,8.50
2022-11-20T02:02:00.306Z,8.73
2022-11-20T02:04:28.400Z,9.30
2022-11-20T02:07:01.391Z,9.67
2022-11-20T02:09:29.667Z,8.63
2022-11-20T02:11:58.280Z,8.87
2022-11-20T02:14:26.435Z,9.10
2022-11-20T02:16:56.061Z,9.43
2022-11-20T02:19:28.212Z,8.93
2022-11-20T02:22:07.752Z,8.47
2022-11-20T02:24:37.091Z,9.57
2022-11-20T02:27:08.570Z,9.60
2022-11-20T02:29:40.088Z,8.80
2022-11-20T02:32:08.590Z,9.80
2022-11-20T02:34:36.491Z,9.30
2022-11-20T02:37:04.566Z,9.57
2022-11-20T02:39:32.622Z,10.00
2022-11-20T02:42:03.856Z,9.50
2022-11-20T02:44:31.869Z,8.87
2022-11-20T02:47:00.773Z,9.20
2022-11-20T02:49:28.787Z,8.87
2022-11-20T02:51:56.822Z,9.80
2022-11-20T02:54:24.903Z,9.37
2022-11-20T02:56:52.996Z,8.83
2022-11-20T02:59:22.765Z,9.10
2022-11-20T03:01:51.019Z,9.57
2022-11-20T03:04:19.130Z,10.20
2022-11-20T03:06:47.165Z,9.80
2022-11-20T03:09:15.411Z,9.23
2022-11-20T03:11:43.466Z,9.80
2022-11-20T03:14:11.364Z,9.60
2022-11-20T03:16:40.906Z,9.67
2022-11-20T03:19:09.033Z,10.30
2022-11-20T03:21:37.798Z,10.17
2022-11-20T03:24:06.206Z,10.70
2022-11-20T03:26:34.379Z,10.00
2022-11-20T03:29:07.014Z,10.30
2022-11-20T03:31:36.985Z,9.13
2022-11-20T03:34:06.543Z,10.43
2022-11-20T03:36:35.219Z,10.07
2022-11-20T03:39:03.358Z,11.17
2022-11-20T03:41:32.922Z,9.93
2022-11-20T03:44:02.795Z,8.90
2022-11-20T03:46:31.352Z,9.60
2022-11-20T03:48:59.525Z,10.07
2022-11-20T03:51:33.394Z,9.60
2022-11-20T03:54:04.157Z,10.20
2022-11-20T03:56:34.864Z,9.83
2022-11-20T03:59:03.043Z,10.27
2022-11-20T04:01:33.546Z,9.77
2022-11-20T04:04:02.208Z,9.93
2022-11-20T04:06:33.102Z,9.20
2022-11-20T04:09:01.323Z,9.23
2022-11-20T04:11:30.655Z,10.77
2022-11-20T04:14:00.248Z,9.13
2022-11-20T04:16:30.620Z,9.93
2022-11-20T04:18:59.798Z,9.77
2022-11-20T04:21:28.463Z,10.20
2022-11-20T04:23:58.173Z,10.03
2022-11-20T04:26:28.141Z,10.30
2022-11-20T04:28:56.220Z,10.50
2022-11-20T04:31:25.973Z,9.40
2022-11-20T04:33:54.706Z,10.20
2022-11-20T04:36:24.386Z,10.30
2022-11-20T04:38:56.780Z,10.43
2022-11-20T04:41:29.217Z,10.60
2022-11-20T04:44:00.742Z,9.63
2022-11-20T04:46:29.851Z,9.83
2022-11-20T04:48:58.038Z,9.60
2022-11-20T04:51:26.251Z,8.93
2022-11-20T04:53:54.687Z,10.13
2022-11-20T04:56:22.827Z,10.83
2022-11-20T04:58:52.363Z,9.57
2022-11-20T05:01:22.882Z,10.43
2022-11-20T05:03:51.325Z,9.93
2022-11-20T05:06:22.406Z,9.83
2022-11-20T05:08:50.966Z,9.80
2022-11-20T05:11:21.367Z,9.67
2022-11-20T05:13:51.368Z,10.27
2022-11-20T05:16:21.349Z,10.67
2022-11-20T05:18:50.256Z,10.57
2022-11-20T05:21:19.126Z,10.40
2022-11-20T05:23:47.439Z,9.93
2022-11-20T05:26:17.762Z,11.00
2022-11-20T05:28:46.044Z,9.73
2022-11-20T05:31:26.263Z,10.17
2022-11-20T05:33:55.021Z,10.17
2022-11-20T05:36:23.165Z,10.77
2022-11-20T05:38:51.954Z,10.33
2022-11-20T05:41:22.508Z,10.57
2022-11-20T05:43:52.730Z,10.87
2022-11-20T05:46:28.316Z,10.10
2022-11-20T05:48:57.858Z,10.80
2022-11-20T05:51:26.940Z,9.77
2022-11-20T05:53:54.914Z,10.00
2022-11-20T05:56:24.046Z,10.83
2022-11-20T05:58:52.236Z,11.03
2022-11-20T06:01:23.977Z,11.13
2022-11-20T06:03:52.552Z,10.90
2022-11-20T06:06:21.446Z,10.63
2022-11-20T06:08:49.984Z,9.93
2022-11-20T06:11:19.278Z,10.90
2022-11-20T06:13:48.132Z,11.00
2022-11-20T06:16:17.728Z,10.40
2022-11-20T06:18:47.609Z,10.83
2022-11-20T06:21:17.524Z,10.57
2022-11-20T06:23:46.325Z,10.67
2022-11-20T06:26:17.971Z,10.60
2022-11-20T06:28:46.932Z,10.80
2022-11-20T06:31:17.053Z,10.53
2022-11-20T06:33:46.543Z,10.73
2022-11-20T06:36:16.537Z,10.60
2022-11-20T06:38:44.879Z,10.90
2022-11-20T06:41:15.052Z,10.53
2022-11-20T06:43:43.325Z,11.53
2022-11-20T06:46:12.781Z,11.73
2022-11-20T06:48:40.790Z,11.23
2022-11-20T06:51:10.544Z,10.13
2022-11-20T06:53:39.141Z,10.40
2022-11-20T06:56:08.301Z,11.87
2022-11-20T06:58:37.965Z,12.57
2022-11-20T07:01:08.284Z,11.27
2022-11-20T07:03:36.688Z,12.10
2022-11-20T07:06:05.959Z,12.97
2022-11-20T07:08:36.140Z,12.73
2022-11-20T07:11:06.019Z,11.17
2022-11-20T07:13:34.318Z,11.53
2022-11-20T07:16:03.336Z,11.60
2022-11-20T07:18:31.520Z,11.47
2022-11-20T07:21:03.241Z,11.97
2022-11-20T07:23:31.374Z,10.50
2022-11-20T07:26:04.735Z,10.60
2022-11-20T07:28:32.714Z,12.10
2022-11-20T07:31:00.738Z,10.67
2022-11-20T07:33:29.022Z,10.77
2022-11-20T07:35:57.020Z,11.70
2022-11-20T07:38:25.226Z,11.70
2022-11-20T07:40:56.819Z,11.60
2022-11-20T07:43:27.156Z,11.37
2022-11-20T07:45:58.322Z,11.63
2022-11-20T07:48:27.107Z,12.23
2022-11-20T07:50:56.386Z,11.20
2022-11-20T07:53:24.459Z,10.60
2022-11-20T07:55:53.678Z,12.00
2022-11-20T07:58:21.958Z,13.00
2022-11-20T08:00:51.559Z,12.53
2022-11-20T08:03:24.663Z,12.47
2022-11-20T08:05:53.507Z,11.83
2022-11-20T08:08:21.654Z,11.83
2022-11-20T08:10:49.600Z,12.27
2022-11-20T08:13:35.029Z,11.73
2022-11-20T08:16:04.611Z,12.27
2022-11-20T08:18:33.075Z,12.50
2022-11-20T08:21:05.698Z,13.30
2022-11-20T08:23:33.807Z,12.53
2022-11-20T08:26:01.848Z,12.50
2022-11-20T08:28:29.924Z,13.00
2022-11-20T08:31:00.822Z,12.43
2022-11-20T08:33:30.777Z,12.00
2022-11-20T08:36:01.950Z,12.30
2022-11-20T08:38:30.253Z,13.57
2022-11-20T08:41:16.977Z,13.33
2022-11-20T08:43:44.928Z,13.90
2022-11-20T08:46:13.187Z,14.10
2022-11-20T08:48:42.714Z,12.97
2022-11-20T08:51:11.346Z,12.63
2022-11-20T08:53:39.577Z,13.73
2022-11-20T08:56:08.167Z,14.63
2022-11-20T08:59:01.865Z,13.33
2022-11-20T09:01:25.569Z,12.97
2022-11-20T09:03:56.847Z,13.17
2022-11-20T09:06:25.169Z,13.73
2022-11-20T09:08:54.477Z,13.57
2022-11-20T09:11:22.795Z,14.10
2022-11-20T09:13:51.077Z,13.90
2022-11-20T09:16:19.241Z,13.97
2022-11-20T09:18:47.144Z,15.07
2022-11-20T09:21:16.624Z,14.47
2022-11-20T09:23:44.874Z,14.80
2022-11-20T09:26:14.210Z,15.73
2022-11-20T09:28:42.520Z,15.70
2022-11-20T09:31:11.842Z,15.43
2022-11-20T09:33:40.026Z,14.70
2022-11-20T09:36:08.850Z,15.53
2022-11-20T09:38:39.991Z,14.77
2022-11-20T09:41:18.908Z,15.43
2022-11-20T09:43:58.239Z,15.90
2022-11-20T09:46:37.664Z,15.20
2022-11-20T09:49:31.934Z,15.47
2022-11-20T09:52:02.079Z,15.30
2022-11-20T09:54:34.133Z,15.83
2022-11-20T09:57:05.028Z,15.73
2022-11-20T09:59:40.768Z,16.07
2022-11-20T10:02:18.701Z,16.00
2022-11-20T10:04:54.684Z,16.17
2022-11-20T10:07:32.775Z,23.93
2022-11-20T10:10:02.977Z,17.70
2022-11-20T10:12:45.347Z,24.37
2022-11-20T10:15:29.817Z,16.93
2022-11-20T10:18:11.297Z,18.43
2022-11-20T10:20:48.493Z,18.57
2022-11-20T10:23:44.074Z,19.17
2022-11-20T10:26:22.665Z,17.37
2022-11-20T10:29:09.044Z,17.33
2022-11-20T10:31:39.408Z,18.07
2022-11-20T10:34:19.397Z,16.93
2022-11-20T10:36:57.610Z,16.27
2022-11-20T10:39:35.417Z,18.17
2022-11-20T10:42:10.577Z,22.80
2022-11-20T10:45:02.767Z,17.57
2022-11-20T10:47:34.248Z,17.27
2022-11-20T10:50:06.616Z,19.10
2022-11-20T10:52:44.141Z,19.73
2022-11-20T10:55:24.656Z,18.13
2022-11-20T10:58:05.738Z,18.77
2022-11-20T11:00:34.056Z,18.23
2022-11-20T11:03:04.172Z,19.37
2022-11-20T11:05:41.813Z,19.10
2022-11-20T11:08:15.076Z,18.37
2022-11-20T11:10:50.603Z,18.37
2022-11-20T11:13:29.262Z,18.63
2022-11-20T11:16:05.926Z,18.20
2022-11-20T11:18:35.501Z,18.63
2022-11-20T11:21:06.790Z,19.17
2022-11-20T11:23:36.534Z,20.73
2022-11-20T11:26:07.081Z,19.17
2022-11-20T11:28:37.315Z,19.00
2022-11-20T11:31:06.103Z,19.13
2022-11-20T11:33:36.475Z,19.60
2022-11-20T11:36:07.112Z,19.03
2022-11-20T11:38:39.090Z,18.73
2022-11-20T11:41:09.779Z,19.07
2022-11-20T11:43:57.732Z,19.03
2022-11-20T11:46:33.643Z,18.10
2022-11-20T11:49:03.984Z,18.70
2022-11-20T11:51:38.845Z,19.97
2022-11-20T11:54:17.969Z,19.40
2022-11-20T11:56:47.860Z,18.00
2022-11-20T11:59:25.225Z,20.27
2022-11-20T12:01:57.452Z,19.03
2022-11-20T12:04:42.375Z,20.70
2022-11-20T12:07:44.420Z,19.47
2022-11-20T12:10:05.493Z,20.10
2022-11-20T12:12:39.828Z,19.53
2022-11-20T12:15:15.094Z,20.27
2022-11-20T12:17:43.389Z,21.30
2022-11-20T12:20:22.114Z,20.73
2022-11-20T12:22:57.976Z,28.33
2022-11-20T12:25:30.876Z,21.17
2022-11-20T12:28:23.861Z,21.90
2022-11-20T12:31:35.515Z,22.17
2022-11-20T12:34:24.392Z,21.30
2022-11-20T12:36:58.128Z,22.27
2022-11-20T12:39:37.862Z,21.20
2022-11-20T12:42:45.349Z,22.27
2022-11-20T12:45:38.830Z,22.20
2022-11-20T12:48:44.983Z,21.80
2022-11-20T12:51:30.742Z,21.20
2022-11-20T12:54:19.855Z,21.07
2022-11-20T12:56:59.466Z,21.20
2022-11-20T12:59:46.040Z,21.73
2022-11-20T13:02:26.372Z,20.10
2022-11-20T13:05:18.553Z,22.07
2022-11-20T13:07:47.357Z,22.47
2022-11-20T13:10:22.893Z,23.57
2022-11-20T13:12:59.267Z,22.77
2022-11-20T13:15:39.616Z,22.37
2022-11-20T13:18:12.240Z,23.27
2022-11-20T13:20:47.120Z,23.23
2022-11-20T13:23:25.718Z,23.20
2022-11-20T13:26:04.632Z,23.47
2022-11-20T13:28:32.740Z,22.20
2022-11-20T13:31:01.434Z,24.10
2022-11-20T13:33:32.988Z,22.07
2022-11-20T13:36:04.951Z,22.60
2022-11-20T13:38:45.850Z,23.63
2022-11-20T13:41:32.500Z,27.57
2022-11-20T13:44:09.096Z,23.47
2022-11-20T13:46:39.958Z,23.60
2022-11-20T13:49:17.562Z,23.90
2022-11-20T13:51:48.804Z,23.93
2022-11-20T13:54:32.456Z,24.80
2022-11-20T13:57:16.262Z,23.70
2022-11-20T13:59:55.722Z,25.60
2022-11-20T14:02:26.991Z,23.73
2022-11-20T14:04:58.873Z,23.93
2022-11-20T14:07:34.364Z,24.20
2022-11-20T14:10:02.576Z,23.77
2022-11-20T14:12:32.514Z,24.13
2022-11-20T14:15:01.148Z,21.83
2022-11-20T14:17:33.547Z,22.80
2022-11-20T14:20:04.398Z,23.50
2022-11-20T14:22:33.791Z,24.40
2022-11-20T14:25:08.021Z,23.93
2022-11-20T14:27:38.350Z,23.60
2022-11-20T14:30:07.400Z,23.13
2022-11-20T14:32:38.260Z,22.20
2022-11-20T14:35:11.907Z,22.13
2022-11-20T14:37:42.967Z,22.57
2022-11-20T14:40:36.520Z,21.90
2022-11-20T14:43:22.198Z,23.73
2022-11-20T14:45:57.784Z,21.87
2022-11-20T14:48:31.715Z,21.77
2022-11-20T14:50:59.984Z,22.83
2022-11-20T14:53:29.246Z,21.47
2022-11-20T14:55:59.570Z,22.67
2022-11-20T14:58:30.477Z,21.87
2022-11-20T15:01:00.546Z,22.00
2022-11-20T15:03:34.017Z,27.38
2022-11-20T15:06:02.151Z,23.97
2022-11-20T15:08:31.928Z,24.00
2022-11-20T15:11:00.828Z,23.37
2022-11-20T15:13:33.065Z,21.90
2022-11-20T15:16:03.514Z,21.03
2022-11-20T15:18:35.479Z,21.13
2022-11-20T15:21:05.744Z,21.43
2022-11-20T15:23:35.006Z,21.67
2022-11-20T15:26:03.147Z,23.37
2022-11-20T15:28:33.471Z,21.20
2022-11-20T15:31:03.307Z,21.17
2022-11-20T15:33:31.756Z,21.20
2022-11-20T15:35:59.969Z,21.33
2022-11-20T15:38:28.265Z,21.37
2022-11-20T15:40:59.066Z,20.73
2022-11-20T15:43:27.112Z,21.63
2022-11-20T15:45:57.694Z,22.30
2022-11-20T15:48:29.488Z,21.40
2022-11-20T15:51:02.325Z,21.63
2022-11-20T15:53:30.382Z,20.87
2022-11-20T15:56:00.159Z,21.27
2022-11-20T15:58:28.132Z,20.97
2022-11-20T16:00:56.284Z,22.23
2022-11-20T16:03:24.575Z,21.50
2022-11-20T16:05:52.914Z,20.70
2022-11-20T16:08:20.822Z,21.57
2022-11-20T16:10:48.857Z,22.23
2022-11-20T16:13:37.371Z,20.97
2022-11-20T16:16:07.879Z,21.77
2022-11-20T16:18:36.073Z,18.80
2022-11-20T16:21:04.238Z,19.97
2022-11-20T16:23:32.296Z,19.63
2022-11-20T16:26:00.383Z,18.80
2022-11-20T16:28:29.694Z,19.70
2022-11-20T16:30:57.851Z,19.63
2022-11-20T16:33:25.868Z,20.70
2022-11-20T16:35:53.828Z,21.97
2022-11-20T16:38:22.184Z,18.83
2022-11-20T16:40:50.350Z,19.27
2022-11-20T16:43:18.442Z,19.73
2022-11-20T16:45:48.013Z,20.17
2022-11-20T16:48:20.778Z,21.03
2022-11-20T16:50:50.341Z,18.57
2022-11-20T16:53:18.574Z,19.73
2022-11-20T16:55:46.799Z,19.43
2022-11-20T16:58:15.153Z,20.67
2022-11-20T17:00:49.957Z,19.10
2022-11-20T17:03:22.995Z,18.73
2022-11-20T17:05:51.079Z,19.43
2022-11-20T17:08:19.039Z,20.03
2022-11-20T17:10:46.972Z,20.00
2022-11-20T17:13:14.862Z,19.70
2022-11-20T17:15:42.897Z,19.73
2022-11-20T17:18:10.915Z,18.93
2022-11-20T17:20:40.315Z,19.87
2022-11-20T17:23:08.761Z,20.37
2022-11-20T17:25:36.766Z,17.80
2022-11-20T17:28:05.442Z,19.07
2022-11-20T17:30:34.712Z,18.90
2022-11-20T17:33:02.926Z,18.77
2022-11-20T17:35:30.970Z,20.13
2022-11-20T17:38:01.478Z,18.97
2022-11-20T17:40:29.652Z,18.63
2022-11-20T17:42:57.781Z,19.53
2022-11-20T17:45:25.938Z,18.47
2022-11-20T17:47:54.032Z,18.33
2022-11-20T17:50:22.222Z,19.87
2022-11-20T17:52:50.341Z,19.63
2022-11-20T17:55:19.953Z,18.93
2022-11-20T17:57:52.912Z,18.60
2022-11-20T18:00:22.289Z,17.70
2022-11-20T18:02:50.904Z,17.27
2022-11-20T18:05:19.151Z,18.50
2022-11-20T18:07:47.346Z,17.93
2022-11-20T18:10:15.661Z,17.03
2022-11-20T18:12:45.163Z,18.37
2022-11-20T18:15:13.404Z,16.50
2022-11-20T18:17:41.556Z,16.33
2022-11-20T18:22:58.781Z,16.13
2022-11-20T18:25:27.148Z,17.13
2022-11-20T18:27:56.914Z,17.13
2022-11-20T18:30:25.947Z,17.67
2022-11-20T18:32:55.863Z,17.83
2022-11-20T18:35:25.796Z,17.33
2022-11-20T18:37:54.561Z,16.87
2022-11-20T18:40:22.702Z,18.27
2022-11-20T18:43:08.440Z,17.93
2022-11-20T18:45:37.854Z,18.80
2022-11-20T18:48:06.130Z,18.00
2022-11-20T18:50:34.611Z,19.10
2022-11-20T18:53:02.971Z,18.83
2022-11-20T18:55:31.544Z,19.40
2022-11-20T18:58:00.020Z,20.23
2022-11-20T19:00:28.290Z,20.53
2022-11-20T19:02:57.733Z,20.47
2022-11-20T19:05:27.183Z,19.77
2022-11-20T19:07:55.204Z,20.03
2022-11-20T19:10:24.374Z,19.80
2022-11-20T19:12:52.466Z,21.07
2022-11-20T19:15:20.577Z,20.47
2022-11-20T19:17:48.730Z,20.27
2022-11-20T19:20:38.306Z,19.93
2022-11-20T19:23:06.261Z,19.03
2022-11-20T19:25:38.213Z,18.73
2022-11-20T19:28:06.677Z,19.13
2022-11-20T19:30:34.664Z,18.20
2022-11-20T19:33:02.890Z,17.97
2022-11-20T19:35:32.366Z,18.20
2022-11-20T19:38:05.317Z,18.60
2022-11-20T19:40:34.897Z,20.20
2022-11-20T19:43:02.968Z,19.33
2022-11-20T19:45:31.005Z,20.80
2022-11-20T19:48:07.627Z,19.90
2022-11-20T19:50:37.623Z,20.00
2022-11-20T19:53:07.451Z,18.17
2022-11-20T19:55:35.486Z,18.60
2022-11-20T19:58:05.070Z,17.73
2022-11-20T20:00:33.254Z,17.87
2022-11-20T20:03:01.340Z,16.63
2022-11-20T20:05:49.318Z,17.67
2022-11-20T20:08:18.712Z,19.50
2022-11-20T20:10:46.776Z,19.57
2022-11-20T20:13:14.827Z,18.07
2022-11-20T20:15:42.865Z,17.27
2022-11-20T20:18:11.051Z,16.23
2022-11-20T20:20:39.337Z,15.63
2022-11-20T20:23:07.894Z,13.97
2022-11-20T20:25:38.194Z,7.33
2022-11-20T20:28:07.074Z,4.50
2022-11-20T20:30:37.870Z,3.43
2022-11-20T20:33:05.948Z,3.33
2022-11-20T20:35:33.925Z,3.83
2022-11-20T20:38:01.996Z,3.77
2022-11-20T20:40:29.972Z,3.47
2022-11-20T20:42:59.881Z,4.10
2022-11-20T20:45:28.308Z,3.87
2022-11-20T20:47:56.974Z,3.90
2022-11-20T20:50:28.765Z,4.10
2022-11-20T20:52:57.045Z,4.53
2022-11-20T20:55:25.662Z,4.70
2022-11-20T20:57:55.393Z,4.27
2022-11-20T21:00:24.855Z,3.67
2022-11-20T21:02:52.949Z,4.60
2022-11-20T21:05:21.129Z,3.90
2022-11-20T21:08:06.607Z,3.63
2022-11-20T21:10:35.049Z,4.03
2022-11-20T21:13:03.109Z,3.47
2022-11-20T21:15:32.703Z,3.63
2022-11-20T21:18:01.068Z,4.03
2022-11-20T21:20:46.713Z,3.20
2022-11-20T21:23:14.652Z,3.17
2022-11-20T21:25:42.665Z,3.13
2022-11-20T21:28:15.511Z,3.20
2022-11-20T21:30:47.293Z,3.50
2022-11-20T21:33:15.540Z,3.03
2022-11-20T21:35:43.555Z,3.13
2022-11-20T21:38:11.923Z,3.17
2022-11-20T21:40:40.690Z,2.47
2022-11-20T21:43:08.581Z,3.33
2022-11-20T21:45:36.523Z,2.50
2022-11-20T21:48:06.719Z,2.47
2022-11-20T21:50:35.884Z,2.80
2022-11-20T21:53:03.819Z,2.40
2022-11-20T21:55:31.968Z,1.97
2022-11-20T21:57:59.954Z,2.50
2022-11-20T22:00:28.158Z,3.07
2022-11-20T22:02:56.110Z,2.27
2022-11-20T22:05:25.840Z,2.90
2022-11-20T22:07:53.783Z,2.80
2022-11-20T22:10:27.969Z,2.37
2022-11-20T22:13:17.069Z,2.17
2022-11-20T22:15:59.695Z,2.23
2022-11-20T22:18:28.321Z,2.30
2022-11-20T22:20:58.174Z,2.27
2022-11-20T22:23:26.333Z,4.77
2022-11-20T22:25:54.252Z,3.03
2022-11-20T22:28:25.284Z,2.40
2022-11-20T22:30:58.051Z,2.00
2022-11-20T22:33:26.338Z,2.27
2022-11-20T22:35:54.316Z,1.90
2022-11-20T22:38:29.637Z,2.30
2022-11-20T22:41:02.996Z,2.23
2022-11-20T22:43:31.157Z,2.13
2022-11-20T22:46:06.377Z,2.27
2022-11-20T22:48:36.387Z,1.90
2022-11-20T22:51:06.561Z,1.97
2022-11-20T22:53:36.613Z,4.30
2022-11-20T22:56:07.122Z,5.47
2022-11-20T22:58:36.517Z,7.13
2022-11-20T23:01:08.950Z,7.33
2022-11-20T23:03:37.246Z,6.40
2022-11-20T23:06:05.900Z,8.37
2022-11-20T23:08:35.427Z,8.27
2022-11-20T23:11:05.219Z,9.60
2022-11-20T23:13:33.749Z,10.97
2022-11-20T23:16:03.547Z,10.13
2022-11-20T23:18:31.891Z,10.33
2022-11-20T23:21:05.767Z,11.60
2022-11-20T23:23:35.394Z,11.70
2022-11-20T23:26:03.472Z,12.10
2022-11-20T23:28:31.711Z,12.73
2022-11-20T23:31:00.760Z,12.40
2022-11-20T23:33:29.234Z,13.17
2022-11-20T23:35:57.513Z,13.13
2022-11-20T23:38:25.585Z,13.63
2022-11-20T23:40:54.972Z,13.10
2022-11-20T23:43:23.953Z,14.47
2022-11-20T23:45:53.338Z,14.10
2022-11-20T23:48:22.853Z,12.87
2022-11-20T23:50:51.133Z,13.50
2022-11-20T23:53:20.079Z,12.90
2022-11-20T23:55:49.434Z,12.60
2022-11-20T23:58:18.999Z,13.40
